Time;durP1;ratioP1;P1;durP2;ratioP2;P2;SDS_P1;SDS_P2;PMS_P1;PMS_P2;Temp;Humidity;BMP_temperature;BMP_pressure;BME280_temperature;BME280_humidity;BME280_pressure;Samples;Min_cycle;Max_cycle;Signal;HPM_P1;HPM_P2
2022/09/18 00:02:18;;;;;;;;;;;9.60;99.90;;;;;;5015537;28;19983;-70
2022/09/18 00:04:43;;;;;;;;;;;9.50;99.90;;;;;;5028304;28;19966;-70
2022/09/18 00:07:09;;;;;;;;;;;9.50;99.90;;;;;;5037144;28;19983;-70
2022/09/18 00:09:34;;;;;;;;;;;9.50;99.90;;;;;;5053036;28;19920;-70
2022/09/18 00:12:00;;;;;;;;;;;9.50;99.90;;;;;;5049972;28;20066;-70
2022/09/18 00:14:25;;;;;;;;;;;9.40;99.90;;;;;;5031842;28;19925;-71
2022/09/18 00:16:51;;;;;;;;;;;9.40;99.90;;;;;;5020190;28;19921;-70
2022/09/18 00:19:17;;;;;;;;;;;9.40;99.90;;;;;;5015290;28;19921;-70
2022/09/18 00:21:44;;;;;;;;;;;9.40;99.90;;;;;;5022490;28;19929;-70
2022/09/18 00:24:10;;;;;;;;;;;9.30;99.90;;;;;;5034975;28;19928;-70
2022/09/18 00:26:36;;;;;;;;;;;9.30;99.90;;;;;;5034302;28;20310;-70
2022/09/18 00:29:01;;;;;;;;;;;9.30;99.90;;;;;;5034498;28;19925;-70
2022/09/18 00:31:28;;;;;;;;;;;9.30;99.90;;;;;;5034912;28;19925;-70
2022/09/18 00:33:55;;;;;;;;;;;9.30;99.90;;;;;;5032727;28;19924;-71
2022/09/18 00:36:20;;;;;;;;;;;9.40;99.90;;;;;;5034619;28;20040;-71
2022/09/18 00:38:46;;;;;;;;;;;9.50;99.90;;;;;;5034517;28;20015;-70
2022/09/18 00:41:13;;;;;;;;;;;9.60;99.90;;;;;;5034580;28;20089;-70
2022/09/18 00:43:39;;;;;;;;;;;9.60;99.90;;;;;;5034758;28;19921;-70
2022/09/18 00:46:04;;;;;;;;;;;9.70;99.90;;;;;;5033922;28;19931;-71
2022/09/18 00:48:41;;;;;;;;;;;9.70;99.90;;;;;;5033004;28;20007;-71
2022/09/18 00:51:07;;;;;;;;;;;9.80;99.90;;;;;;5034217;28;19947;-71
2022/09/18 00:53:33;;;;;;;;;;;9.80;99.90;;;;;;5032744;28;19929;-71
2022/09/18 00:55:59;;;;;;;;;;;9.70;99.90;;;;;;5034240;28;20023;-71
2022/09/18 00:58:25;;;;;;;;;;;9.70;99.90;;;;;;5030748;28;19925;-71
2022/09/18 01:00:50;;;;;;;;;;;9.70;99.90;;;;;;5031905;28;19920;-71
2022/09/18 01:03:16;;;;;;;;;;;9.60;99.90;;;;;;5026952;28;19921;-70
2022/09/18 01:05:59;;;;;;;;;;;9.60;99.90;;;;;;5019307;28;19931;-70
2022/09/18 01:08:46;;;;;;;;;;;9.60;99.90;;;;;;5028437;28;20520;-70
2022/09/18 01:11:11;;;;;;;;;;;9.60;99.90;;;;;;5063879;28;20726;-71
2022/09/18 01:13:46;;;;;;;;;;;9.70;99.90;;;;;;5020766;28;19964;-71
2022/09/18 01:16:20;;;;;;;;;;;9.70;99.90;;;;;;5049026;28;20004;-71
2022/09/18 01:18:46;;;;;;;;;;;9.70;99.90;;;;;;5032586;28;19947;-72
2022/09/18 01:21:14;;;;;;;;;;;9.80;99.90;;;;;;5034788;28;20393;-71
2022/09/18 01:23:52;;;;;;;;;;;9.80;99.90;;;;;;5017073;28;19983;-71
2022/09/18 01:26:30;;;;;;;;;;;9.80;99.90;;;;;;5034253;28;20418;-71
2022/09/18 01:29:09;;;;;;;;;;;9.80;99.90;;;;;;5032706;28;20373;-71
2022/09/18 01:31:58;;;;;;;;;;;9.80;99.90;;;;;;5020584;28;19968;-71
2022/09/18 01:34:27;;;;;;;;;;;9.70;99.90;;;;;;4991105;28;19921;-70
2022/09/18 01:37:01;;;;;;;;;;;9.70;99.90;;;;;;4997576;28;19925;-70
2022/09/18 01:39:30;;;;;;;;;;;9.60;99.90;;;;;;5014591;28;19955;-71
2022/09/18 01:41:56;;;;;;;;;;;9.60;99.90;;;;;;5046177;28;20562;-71
2022/09/18 01:44:29;;;;;;;;;;;9.50;99.90;;;;;;5024538;28;20067;-70
2022/09/18 01:46:56;;;;;;;;;;;9.50;99.90;;;;;;5030309;28;20369;-71
2022/09/18 01:49:24;;;;;;;;;;;9.50;99.90;;;;;;5031766;28;19990;-71
2022/09/18 01:51:53;;;;;;;;;;;9.40;99.90;;;;;;5031785;28;20351;-70
2022/09/18 01:54:23;;;;;;;;;;;9.40;99.90;;;;;;5031134;28;19932;-71
2022/09/18 01:56:55;;;;;;;;;;;9.40;99.90;;;;;;5025791;28;19963;-71
2022/09/18 01:59:29;;;;;;;;;;;9.40;99.90;;;;;;5029120;28;19929;-71
2022/09/18 02:01:57;;;;;;;;;;;9.40;99.90;;;;;;5030947;28;20007;-70
2022/09/18 02:04:28;;;;;;;;;;;9.40;99.90;;;;;;5031661;28;20065;-70
2022/09/18 02:07:03;;;;;;;;;;;9.40;99.90;;;;;;5036179;28;20023;-70
2022/09/18 02:09:29;;;;;;;;;;;9.50;99.90;;;;;;5055012;28;20328;-70
2022/09/18 02:11:57;;;;;;;;;;;9.50;99.90;;;;;;5038305;28;19939;-70
2022/09/18 02:14:26;;;;;;;;;;;9.50;99.90;;;;;;5037354;28;20370;-71
2022/09/18 02:17:04;;;;;;;;;;;9.50;99.90;;;;;;5019137;28;19920;-70
2022/09/18 02:19:34;;;;;;;;;;;9.50;99.90;;;;;;5055537;28;19925;-71
2022/09/18 02:22:02;;;;;;;;;;;9.50;99.90;;;;;;5032575;28;19936;-70
2022/09/18 02:24:29;;;;;;;;;;;9.50;99.90;;;;;;5035196;28;19928;-70
2022/09/18 02:26:55;;;;;;;;;;;9.50;99.90;;;;;;5019802;28;19959;-70
2022/09/18 02:29:23;;;;;;;;;;;9.50;99.90;;;;;;5035568;28;19924;-71
2022/09/18 02:31:49;;;;;;;;;;;9.50;99.90;;;;;;5035240;28;19928;-70
2022/09/18 02:34:15;;;;;;;;;;;9.50;99.90;;;;;;5053243;28;19920;-71
2022/09/18 02:36:47;;;;;;;;;;;9.60;99.90;;;;;;5043746;28;19974;-71
2022/09/18 02:39:21;;;;;;;;;;;9.60;99.90;;;;;;5036202;28;19929;-71
2022/09/18 02:41:51;;;;;;;;;;;9.60;99.90;;;;;;5035969;28;19921;-71
2022/09/18 02:44:35;;;;;;;;;;;9.60;99.90;;;;;;5035471;28;19920;-71
2022/09/18 02:47:13;;;;;;;;;;;9.60;99.90;;;;;;5035808;28;19925;-71
2022/09/18 02:49:38;;;;;;;;;;;9.60;99.90;;;;;;5007450;28;20330;-70
2022/09/18 02:52:07;;;;;;;;;;;9.60;99.90;;;;;;5032906;28;19925;-70
2022/09/18 02:54:50;;;;;;;;;;;9.70;99.90;;;;;;5032070;28;19991;-70
2022/09/18 02:57:19;;;;;;;;;;;9.70;99.90;;;;;;5029964;28;19964;-70
2022/09/18 02:59:46;;;;;;;;;;;9.70;99.90;;;;;;5026784;28;19932;-70
2022/09/18 03:02:12;;;;;;;;;;;9.70;99.90;;;;;;5032734;28;19921;-70
2022/09/18 03:04:37;;;;;;;;;;;9.80;99.90;;;;;;5022728;28;20003;-71
2022/09/18 03:07:03;;;;;;;;;;;9.80;99.90;;;;;;5028528;28;19927;-71
2022/09/18 03:09:28;;;;;;;;;;;9.90;99.90;;;;;;5037509;28;19928;-71
2022/09/18 03:11:54;;;;;;;;;;;10.00;99.90;;;;;;5035697;28;19924;-71
2022/09/18 03:14:20;;;;;;;;;;;10.00;99.90;;;;;;5035251;28;19928;-71
2022/09/18 03:16:45;;;;;;;;;;;10.00;99.90;;;;;;5055695;28;19927;-71
2022/09/18 03:19:13;;;;;;;;;;;10.10;99.90;;;;;;5034296;28;19993;-72
2022/09/18 03:21:38;;;;;;;;;;;10.10;99.90;;;;;;5019966;28;19932;-71
2022/09/18 03:24:04;;;;;;;;;;;10.10;99.90;;;;;;5026089;28;20347;-71
2022/09/18 03:26:29;;;;;;;;;;;10.10;99.90;;;;;;5036313;28;19967;-71
2022/09/18 03:28:55;;;;;;;;;;;10.10;99.90;;;;;;5018835;28;19956;-71
2022/09/18 03:31:20;;;;;;;;;;;10.10;99.90;;;;;;5035582;28;20047;-71
2022/09/18 03:33:46;;;;;;;;;;;10.10;99.90;;;;;;5035594;28;20392;-71
2022/09/18 03:36:11;;;;;;;;;;;10.10;99.90;;;;;;5034525;28;19925;-71
2022/09/18 03:38:37;;;;;;;;;;;10.10;99.90;;;;;;5034219;28;20293;-71
2022/09/18 03:41:03;;;;;;;;;;;10.10;99.90;;;;;;5035180;28;19932;-71
2022/09/18 03:43:28;;;;;;;;;;;10.20;99.90;;;;;;5035215;28;19921;-71
2022/09/18 03:45:54;;;;;;;;;;;10.10;99.90;;;;;;5033801;28;19920;-71
2022/09/18 03:48:20;;;;;;;;;;;10.20;99.90;;;;;;5034794;28;19949;-71
2022/09/18 03:50:48;;;;;;;;;;;10.20;99.90;;;;;;5034575;28;19932;-72
2022/09/18 03:53:13;;;;;;;;;;;10.20;99.90;;;;;;5031765;28;19921;-71
2022/09/18 03:55:39;;;;;;;;;;;10.20;99.90;;;;;;5020488;28;19925;-71
2022/09/18 03:58:05;;;;;;;;;;;10.20;99.90;;;;;;5030476;28;19929;-71
2022/09/18 04:00:31;;;;;;;;;;;10.20;99.90;;;;;;5033589;28;19935;-70
2022/09/18 04:02:56;;;;;;;;;;;10.10;99.90;;;;;;5031329;28;19936;-71
2022/09/18 04:05:21;;;;;;;;;;;10.10;99.90;;;;;;5032714;28;20358;-71
2022/09/18 04:07:47;;;;;;;;;;;10.10;99.90;;;;;;5034430;28;19927;-71
2022/09/18 04:10:13;;;;;;;;;;;10.20;99.90;;;;;;5030593;28;19983;-70
2022/09/18 04:12:38;;;;;;;;;;;10.10;99.90;;;;;;5032314;28;19924;-71
2022/09/18 04:15:04;;;;;;;;;;;10.20;99.90;;;;;;5034237;28;19931;-71
2022/09/18 04:17:29;;;;;;;;;;;10.10;99.90;;;;;;5035484;28;19959;-71
2022/09/18 04:19:55;;;;;;;;;;;10.20;99.90;;;;;;5022662;28;19921;-71
2022/09/18 04:22:21;;;;;;;;;;;10.20;99.90;;;;;;5037499;28;19925;-71
2022/09/18 04:24:46;;;;;;;;;;;10.20;99.90;;;;;;5034303;28;19921;-71
2022/09/18 04:27:12;;;;;;;;;;;10.20;99.90;;;;;;5031272;28;20434;-71
2022/09/18 04:29:37;;;;;;;;;;;10.20;99.90;;;;;;5027041;28;20079;-71
2022/09/18 04:32:04;;;;;;;;;;;10.20;99.90;;;;;;5038755;28;19925;-71
2022/09/18 04:34:29;;;;;;;;;;;10.20;99.90;;;;;;5032339;28;19928;-71
2022/09/18 04:36:55;;;;;;;;;;;10.20;99.90;;;;;;5027051;28;19973;-72
2022/09/18 04:39:21;;;;;;;;;;;10.20;99.90;;;;;;5025635;28;20571;-71
2022/09/18 04:41:47;;;;;;;;;;;10.20;99.90;;;;;;5031997;28;19924;-71
2022/09/18 04:44:12;;;;;;;;;;;10.20;99.90;;;;;;5028299;28;19936;-71
2022/09/18 04:46:38;;;;;;;;;;;10.20;99.90;;;;;;5022766;28;19978;-71
2022/09/18 04:49:03;;;;;;;;;;;10.20;99.90;;;;;;5020730;28;19933;-71
2022/09/18 04:51:29;;;;;;;;;;;10.20;99.90;;;;;;5028913;28;19920;-71
2022/09/18 04:53:54;;;;;;;;;;;10.20;99.90;;;;;;5025095;28;19979;-71
2022/09/18 04:56:20;;;;;;;;;;;10.20;99.90;;;;;;5033406;28;19928;-71
2022/09/18 04:58:45;;;;;;;;;;;10.20;99.90;;;;;;5026645;28;19925;-71
2022/09/18 05:01:11;;;;;;;;;;;10.20;99.90;;;;;;5025198;28;19921;-71
2022/09/18 05:03:36;;;;;;;;;;;10.20;99.90;;;;;;5026976;28;19952;-71
2022/09/18 05:06:02;;;;;;;;;;;10.20;99.90;;;;;;5034266;28;19931;-71
2022/09/18 05:08:28;;;;;;;;;;;10.20;99.90;;;;;;5032734;28;19978;-71
2022/09/18 05:10:54;;;;;;;;;;;10.20;99.90;;;;;;5032290;28;19960;-71
2022/09/18 05:13:19;;;;;;;;;;;10.20;99.90;;;;;;5036018;28;19971;-70
2022/09/18 05:32:29;;;;;;;;;;;10.30;99.90;;;;;;5051184;28;19925;-70
2022/09/18 05:34:54;;;;;;;;;;;10.30;99.90;;;;;;5016763;28;19927;-70
2022/09/18 05:37:20;;;;;;;;;;;10.40;99.90;;;;;;5023468;28;20284;-70
2022/09/18 05:39:45;;;;;;;;;;;10.40;99.90;;;;;;5032347;28;20304;-70
2022/09/18 05:42:11;;;;;;;;;;;10.50;99.90;;;;;;5031889;28;19921;-70
2022/09/18 05:44:36;;;;;;;;;;;10.60;99.90;;;;;;5046999;28;19927;-70
2022/09/18 05:47:02;;;;;;;;;;;10.60;99.90;;;;;;5026363;28;19929;-70
2022/09/18 05:49:27;;;;;;;;;;;10.60;99.90;;;;;;5032614;28;20349;-71
2022/09/18 05:51:55;;;;;;;;;;;10.60;99.90;;;;;;5022636;28;19936;-71
2022/09/18 05:54:21;;;;;;;;;;;10.60;99.90;;;;;;5030934;28;19935;-70
2022/09/18 05:56:47;;;;;;;;;;;10.60;99.90;;;;;;5047628;28;19927;-70
2022/09/18 05:59:12;;;;;;;;;;;10.60;99.90;;;;;;5031234;28;20370;-70
2022/09/18 06:01:38;;;;;;;;;;;10.60;99.90;;;;;;5044409;28;19928;-70
2022/09/18 06:04:03;;;;;;;;;;;10.70;99.90;;;;;;5046141;28;19971;-70
2022/09/18 06:06:29;;;;;;;;;;;10.70;99.90;;;;;;5008111;28;20696;-70
2022/09/18 06:08:54;;;;;;;;;;;10.70;99.90;;;;;;5015995;28;20365;-70
2022/09/18 06:11:20;;;;;;;;;;;10.80;99.90;;;;;;5032002;28;19929;-70
2022/09/18 06:13:48;;;;;;;;;;;10.70;99.90;;;;;;5051816;28;19921;-70
2022/09/18 06:16:13;;;;;;;;;;;10.80;99.90;;;;;;5029534;28;19955;-70
2022/09/18 06:18:39;;;;;;;;;;;10.80;99.90;;;;;;5031460;28;20344;-70
2022/09/18 06:21:04;;;;;;;;;;;10.80;99.90;;;;;;5022863;28;19921;-70
2022/09/18 06:23:30;;;;;;;;;;;10.80;99.90;;;;;;5025259;28;19971;-70
2022/09/18 06:25:59;;;;;;;;;;;10.80;99.90;;;;;;5022698;28;19952;-70
2022/09/18 06:28:29;;;;;;;;;;;10.80;99.90;;;;;;5030518;28;20289;-70
2022/09/18 06:30:56;;;;;;;;;;;10.80;99.90;;;;;;5030030;28;20367;-71
2022/09/18 06:33:21;;;;;;;;;;;10.80;99.90;;;;;;5032716;28;19928;-71
2022/09/18 06:35:48;;;;;;;;;;;10.80;99.90;;;;;;5031186;28;19927;-70
2022/09/18 06:38:13;;;;;;;;;;;10.80;99.90;;;;;;5050264;28;20301;-70
2022/09/18 06:40:39;;;;;;;;;;;10.80;99.90;;;;;;5030347;28;19999;-70
2022/09/18 06:43:04;;;;;;;;;;;10.70;99.90;;;;;;5031752;28;19952;-70
2022/09/18 06:45:31;;;;;;;;;;;10.70;99.90;;;;;;5046784;28;19925;-70
2022/09/18 06:48:03;;;;;;;;;;;10.80;99.90;;;;;;5028253;28;19927;-71
2022/09/18 06:50:29;;;;;;;;;;;10.80;99.90;;;;;;5030022;28;19925;-70
2022/09/18 06:53:00;;;;;;;;;;;10.90;99.90;;;;;;5031625;28;20439;-70
2022/09/18 06:55:25;;;;;;;;;;;10.90;99.90;;;;;;5030604;28;20326;-71
2022/09/18 06:57:54;;;;;;;;;;;10.90;99.90;;;;;;5023092;28;19978;-71
2022/09/18 07:00:20;;;;;;;;;;;11.00;99.90;;;;;;5025669;28;20293;-70
2022/09/18 07:02:52;;;;;;;;;;;11.10;99.90;;;;;;5024104;28;19932;-70
2022/09/18 07:05:18;;;;;;;;;;;11.20;99.90;;;;;;5044905;28;19921;-70
2022/09/18 07:07:44;;;;;;;;;;;11.20;99.90;;;;;;5026975;28;19924;-70
2022/09/18 07:10:10;;;;;;;;;;;11.30;99.90;;;;;;5028377;28;19932;-70
2022/09/18 07:12:35;;;;;;;;;;;11.30;99.90;;;;;;5023786;28;19952;-70
2022/09/18 07:15:01;;;;;;;;;;;11.40;99.90;;;;;;5028143;28;19925;-70
2022/09/18 07:17:26;;;;;;;;;;;11.40;99.90;;;;;;5029720;28;19929;-70
2022/09/18 07:19:52;;;;;;;;;;;11.40;99.90;;;;;;5035813;28;19921;-70
2022/09/18 07:22:18;;;;;;;;;;;11.40;99.90;;;;;;5025304;28;19929;-70
2022/09/18 07:24:43;;;;;;;;;;;11.50;99.90;;;;;;5027135;28;19968;-70
2022/09/18 07:27:08;;;;;;;;;;;11.50;99.90;;;;;;5025240;28;19921;-70
2022/09/18 07:29:34;;;;;;;;;;;11.50;99.90;;;;;;5029487;28;20415;-69
2022/09/18 07:31:59;;;;;;;;;;;11.50;99.90;;;;;;5031571;28;19959;-70
2022/09/18 07:34:25;;;;;;;;;;;11.50;99.90;;;;;;5049083;28;20326;-70
2022/09/18 07:36:51;;;;;;;;;;;11.50;99.90;;;;;;5009033;28;19921;-70
2022/09/18 07:39:16;;;;;;;;;;;11.50;99.90;;;;;;5029649;28;20293;-70
2022/09/18 07:41:42;;;;;;;;;;;11.50;99.90;;;;;;5034055;28;19932;-70
2022/09/18 07:44:08;;;;;;;;;;;11.50;99.90;;;;;;5052873;28;19925;-70
2022/09/18 07:46:33;;;;;;;;;;;11.50;99.90;;;;;;5032511;28;19927;-70
2022/09/18 07:48:59;;;;;;;;;;;11.50;99.90;;;;;;5035335;28;19960;-70
2022/09/18 07:51:24;;;;;;;;;;;11.50;99.90;;;;;;5053022;28;19947;-70
2022/09/18 07:53:50;;;;;;;;;;;11.50;99.90;;;;;;5016145;28;19929;-70
2022/09/18 07:56:15;;;;;;;;;;;11.50;99.90;;;;;;5029376;28;19931;-70
2022/09/18 07:58:41;;;;;;;;;;;11.50;99.90;;;;;;5015776;28;19924;-71
2022/09/18 08:01:07;;;;;;;;;;;11.60;99.90;;;;;;5019917;28;19947;-71
2022/09/18 08:03:33;;;;;;;;;;;11.60;99.90;;;;;;5019924;28;20016;-71
2022/09/18 08:05:58;;;;;;;;;;;11.60;99.90;;;;;;5027837;28;20003;-70
2022/09/18 08:08:24;;;;;;;;;;;11.50;99.90;;;;;;5031665;28;20267;-71
2022/09/18 08:10:49;;;;;;;;;;;11.50;99.90;;;;;;5032243;28;20465;-71
2022/09/18 08:13:15;;;;;;;;;;;11.50;99.90;;;;;;5006466;28;19925;-70
2022/09/18 08:15:41;;;;;;;;;;;11.50;99.90;;;;;;5037149;28;19963;-71
2022/09/18 08:18:07;;;;;;;;;;;11.50;99.90;;;;;;5035428;28;19970;-70
2022/09/18 08:20:33;;;;;;;;;;;11.60;99.90;;;;;;5032508;28;20412;-69
2022/09/18 08:23:03;;;;;;;;;;;11.60;99.90;;;;;;5036269;28;19958;-70
2022/09/18 08:25:29;;;;;;;;;;;11.50;99.90;;;;;;5028793;28;19920;-69
2022/09/18 08:27:59;;;;;;;;;;;11.60;99.90;;;;;;5031885;28;19978;-69
2022/09/18 08:30:24;;;;;;;;;;;11.60;99.90;;;;;;5022785;28;19925;-70
2022/09/18 08:32:49;;;;;;;;;;;11.60;99.90;;;;;;5006175;28;19921;-69
2022/09/18 08:35:15;;;;;;;;;;;11.70;99.90;;;;;;5038071;28;20352;-69
2022/09/18 08:37:50;;;;;;;;;;;11.70;99.90;;;;;;5038717;28;19921;-70
2022/09/18 08:40:17;;;;;;;;;;;11.70;99.90;;;;;;5032868;28;20061;-69
2022/09/18 08:42:45;;;;;;;;;;;11.70;99.90;;;;;;5029140;28;19932;-69
2022/09/18 08:45:14;;;;;;;;;;;11.70;99.90;;;;;;5032803;28;20362;-69
2022/09/18 08:47:41;;;;;;;;;;;11.60;99.90;;;;;;5033458;28;20007;-69
2022/09/18 08:50:10;;;;;;;;;;;11.70;99.90;;;;;;5031690;28;19924;-69
2022/09/18 08:52:39;;;;;;;;;;;11.70;99.90;;;;;;5033139;28;19931;-69
2022/09/18 08:55:04;;;;;;;;;;;11.70;99.90;;;;;;5034204;28;19971;-69
2022/09/18 08:57:41;;;;;;;;;;;11.60;99.90;;;;;;5020393;28;19994;-69
2022/09/18 09:00:10;;;;;;;;;;;11.60;99.90;;;;;;5024733;28;19932;-69
2022/09/18 09:02:41;;;;;;;;;;;11.50;99.90;;;;;;5025797;28;19925;-69
2022/09/18 09:05:09;;;;;;;;;;;11.50;99.90;;;;;;5017015;28;19921;-69
2022/09/18 09:08:04;;;;;;;;;;;11.40;99.90;;;;;;5033146;28;19966;-70
2022/09/18 09:10:35;;;;;;;;;;;11.40;99.90;;;;;;5021447;28;19925;-70
2022/09/18 09:13:19;;;;;;;;;;;11.50;99.90;;;;;;5031425;28;19920;-70
2022/09/18 09:16:00;;;;;;;;;;;11.50;99.90;;;;;;5032247;28;19925;-70
2022/09/18 09:18:40;;;;;;;;;;;11.50;99.90;;;;;;5045333;28;19951;-70
2022/09/18 09:21:25;;;;;;;;;;;11.50;99.90;;;;;;5017118;28;19931;-69
2022/09/18 09:24:12;;;;;;;;;;;11.40;99.90;;;;;;5013304;28;19928;-69
2022/09/18 09:26:38;;;;;;;;;;;11.40;99.90;;;;;;5029505;28;19924;-69
2022/09/18 09:29:12;;;;;;;;;;;11.40;99.90;;;;;;5033008;28;19932;-69
2022/09/18 09:31:39;;;;;;;;;;;11.40;99.90;;;;;;5030486;28;19936;-69
2022/09/18 09:34:15;;;;;;;;;;;11.40;99.90;;;;;;5031606;28;19970;-69
2022/09/18 09:36:41;;;;;;;;;;;11.30;99.90;;;;;;5031598;28;19921;-70
2022/09/18 09:39:16;;;;;;;;;;;11.30;99.90;;;;;;5031812;28;19921;-70
2022/09/18 09:41:48;;;;;;;;;;;11.30;99.90;;;;;;5014212;28;19974;-70
2022/09/18 09:44:22;;;;;;;;;;;11.30;99.90;;;;;;5029419;28;19940;-70
2022/09/18 09:46:59;;;;;;;;;;;11.30;99.90;;;;;;5025389;28;19932;-70
2022/09/18 09:49:27;;;;;;;;;;;11.30;99.90;;;;;;5032650;28;20370;-70
2022/09/18 09:51:59;;;;;;;;;;;11.30;99.90;;;;;;5019889;28;19982;-70
2022/09/18 09:54:24;;;;;;;;;;;11.40;99.90;;;;;;5015862;28;19952;-70
2022/09/18 09:57:19;;;;;;;;;;;11.40;99.90;;;;;;5029709;28;19921;-70
2022/09/18 09:59:47;;;;;;;;;;;11.40;99.90;;;;;;4969016;28;20008;-70
2022/09/18 10:02:32;;;;;;;;;;;11.40;99.90;;;;;;5022892;28;19940;-70
2022/09/18 10:04:57;;;;;;;;;;;11.50;99.90;;;;;;5012978;28;19936;-70
2022/09/18 10:07:30;;;;;;;;;;;11.50;99.90;;;;;;5024978;28;19921;-70
2022/09/18 10:10:14;;;;;;;;;;;11.60;99.90;;;;;;5061619;22;19928;-68
2022/09/18 10:12:50;;;;;;;;;;;11.70;99.90;;;;;;5065801;28;19986;-69
2022/09/18 10:15:21;;;;;;;;;;;11.70;99.90;;;;;;5069251;28;19924;-68
2022/09/18 10:17:49;;;;;;;;;;;11.70;99.90;;;;;;5065120;28;19920;-69
2022/09/18 10:20:16;;;;;;;;;;;11.80;99.90;;;;;;5062136;28;19921;-68
2022/09/18 10:22:41;;;;;;;;;;;12.00;99.90;;;;;;5058851;28;19925;-69
2022/09/18 10:25:26;;;;;;;;;;;12.10;99.90;;;;;;5064842;28;19921;-70
2022/09/18 10:27:51;;;;;;;;;;;12.00;99.90;;;;;;5069414;28;19950;-71
2022/09/18 10:30:17;;;;;;;;;;;12.10;99.90;;;;;;5071608;28;19966;-70
2022/09/18 10:32:42;;;;;;;;;;;12.10;99.90;;;;;;5070380;28;19936;-70
2022/09/18 10:35:27;;;;;;;;;;;12.10;99.90;;;;;;5072823;28;19924;-70
2022/09/18 10:37:52;;;;;;;;;;;12.20;99.90;;;;;;5072277;28;19921;-70
2022/09/18 10:40:38;;;;;;;;;;;12.30;99.90;;;;;;5072960;28;20007;-70
2022/09/18 10:43:14;;;;;;;;;;;12.30;99.90;;;;;;5062600;28;19924;-71
2022/09/18 10:45:40;;;;;;;;;;;12.30;99.90;;;;;;5072523;28;19924;-70
2022/09/18 10:48:13;;;;;;;;;;;12.30;99.90;;;;;;5074124;28;20335;-70
2022/09/18 10:50:50;;;;;;;;;;;12.30;99.90;;;;;;5071693;28;20012;-71
2022/09/18 10:53:22;;;;;;;;;;;12.30;99.90;;;;;;5071287;28;19925;-71
2022/09/18 10:55:49;;;;;;;;;;;12.40;99.90;;;;;;5073052;28;19928;-71
2022/09/18 10:58:14;;;;;;;;;;;12.50;99.90;;;;;;5071912;28;19929;-71
2022/09/18 11:00:48;;;;;;;;;;;12.60;99.90;;;;;;5071568;28;19970;-71
2022/09/18 11:03:22;;;;;;;;;;;12.60;99.90;;;;;;5056277;28;20015;-71
2022/09/18 11:05:48;;;;;;;;;;;12.60;99.90;;;;;;5074406;28;19921;-71
2022/09/18 11:08:15;;;;;;;;;;;12.70;99.90;;;;;;5064576;28;19931;-71
2022/09/18 11:10:45;;;;;;;;;;;12.80;99.90;;;;;;5070612;28;19929;-71
2022/09/18 11:13:18;;;;;;;;;;;12.90;99.90;;;;;;5062140;28;19924;-71
2022/09/18 11:15:51;;;;;;;;;;;12.90;99.90;;;;;;5067917;28;19925;-71
2022/09/18 11:18:16;;;;;;;;;;;12.90;99.90;;;;;;5066523;28;19925;-71
2022/09/18 11:20:43;;;;;;;;;;;13.00;99.90;;;;;;5072333;28;19946;-71
2022/09/18 11:23:13;;;;;;;;;;;13.10;99.90;;;;;;5071107;28;19999;-70
2022/09/18 11:25:39;;;;;;;;;;;13.20;99.90;;;;;;5059445;28;19924;-71
2022/09/18 11:28:19;;;;;;;;;;;13.30;99.90;;;;;;5068711;28;19966;-71
2022/09/18 11:30:52;;;;;;;;;;;13.40;99.90;;;;;;5071129;28;20301;-71
2022/09/18 11:33:24;;;;;;;;;;;13.50;99.90;;;;;;5047515;28;19932;-71
2022/09/18 11:35:54;;;;;;;;;;;13.50;99.90;;;;;;5071864;28;19920;-71
2022/09/18 11:38:20;;;;;;;;;;;13.60;99.90;;;;;;5071940;28;20469;-71
2022/09/18 11:40:49;;;;;;;;;;;13.70;99.90;;;;;;5070740;28;19999;-71
2022/09/18 11:43:15;;;;;;;;;;;13.70;99.90;;;;;;5051226;28;19999;-71
2022/09/18 11:46:04;;;;;;;;;;;13.80;99.90;;;;;;5086937;28;20043;-71
2022/09/18 11:48:44;;;;;;;;;;;13.80;99.90;;;;;;5021992;28;20340;-71
2022/09/18 11:51:30;;;;;;;;;;;13.90;99.90;;;;;;5061933;28;20362;-71
2022/09/18 11:54:05;;;;;;;;;;;14.00;99.90;;;;;;5071354;28;19999;-71
2022/09/18 11:56:44;;;;;;;;;;;14.10;99.90;;;;;;5070855;28;20255;-71
2022/09/18 11:59:13;;;;;;;;;;;14.20;99.90;;;;;;5066539;28;19929;-71
2022/09/18 12:01:44;;;;;;;;;;;14.20;99.90;;;;;;5078176;28;20258;-71
2022/09/18 12:04:22;;;;;;;;;;;14.20;99.90;;;;;;5080356;28;20004;-71
2022/09/18 12:06:54;;;;;;;;;;;14.30;99.90;;;;;;5068514;28;19921;-71
2022/09/18 12:09:39;;;;;;;;;;;14.30;99.90;;;;;;5071128;28;20570;-71
2022/09/18 12:12:09;;;;;;;;;;;14.30;99.90;;;;;;5065900;28;20015;-71
2022/09/18 12:14:38;;;;;;;;;;;14.30;99.90;;;;;;5067924;28;19929;-71
2022/09/18 12:17:10;;;;;;;;;;;14.40;99.90;;;;;;5065142;28;19963;-71
2022/09/18 12:19:48;;;;;;;;;;;14.40;99.90;;;;;;5049325;28;19921;-71
2022/09/18 12:22:38;;;;;;;;;;;14.40;99.90;;;;;;5069593;28;20631;-71
2022/09/18 12:25:13;;;;;;;;;;;14.40;99.90;;;;;;5068991;28;20324;-71
2022/09/18 12:27:41;;;;;;;;;;;14.40;99.90;;;;;;5070045;28;19924;-71
2022/09/18 12:30:07;;;;;;;;;;;14.30;99.90;;;;;;5070168;28;19920;-71
2022/09/18 12:32:46;;;;;;;;;;;14.30;99.90;;;;;;5086006;28;19986;-71
2022/09/18 12:35:15;;;;;;;;;;;14.40;99.90;;;;;;5071288;28;19966;-71
2022/09/18 12:37:46;;;;;;;;;;;14.40;99.90;;;;;;5052020;28;19947;-71
2022/09/18 12:40:35;;;;;;;;;;;14.40;99.90;;;;;;5071239;28;20370;-70
2022/09/18 12:43:07;;;;;;;;;;;14.40;99.90;;;;;;5052762;28;19924;-71
2022/09/18 12:45:56;;;;;;;;;;;14.50;99.90;;;;;;5071195;28;19926;-71
2022/09/18 12:48:25;;;;;;;;;;;14.60;99.90;;;;;;5050876;28;20508;-70
2022/09/18 12:50:55;;;;;;;;;;;14.50;99.90;;;;;;5054023;28;19921;-71
2022/09/18 12:53:26;;;;;;;;;;;14.60;99.90;;;;;;5065881;28;19924;-71
2022/09/18 12:56:11;;;;;;;;;;;14.60;99.90;;;;;;5069590;28;19920;-71
2022/09/18 12:58:40;;;;;;;;;;;14.70;99.90;;;;;;5067546;28;20282;-71
2022/09/18 13:01:16;;;;;;;;;;;14.60;99.90;;;;;;5069702;28;20432;-71
2022/09/18 13:03:41;;;;;;;;;;;14.60;99.90;;;;;;5069712;28;19920;-71
2022/09/18 13:06:10;;;;;;;;;;;14.60;99.90;;;;;;5070025;28;20107;-71
2022/09/18 13:08:45;;;;;;;;;;;14.60;99.90;;;;;;5069698;28;19920;-71
2022/09/18 13:11:29;;;;;;;;;;;14.70;99.90;;;;;;5062744;28;19928;-71
2022/09/18 13:14:13;;;;;;;;;;;14.70;99.90;;;;;;5066780;28;20464;-71
2022/09/18 13:16:41;;;;;;;;;;;14.60;99.90;;;;;;5089832;28;19928;-71
2022/09/18 13:19:12;;;;;;;;;;;14.60;99.90;;;;;;5068735;28;19924;-71
2022/09/18 13:21:43;;;;;;;;;;;14.60;99.90;;;;;;5069127;28;19920;-71
2022/09/18 13:24:17;;;;;;;;;;;14.60;99.90;;;;;;5063340;28;19921;-71
2022/09/18 13:26:44;;;;;;;;;;;14.60;99.90;;;;;;5070754;28;19927;-71
2022/09/18 13:29:28;;;;;;;;;;;14.60;99.90;;;;;;5068654;28;19960;-71
2022/09/18 13:31:54;;;;;;;;;;;14.70;99.90;;;;;;5070716;28;19952;-71
2022/09/18 13:34:21;;;;;;;;;;;14.70;99.90;;;;;;5076561;28;20358;-71
2022/09/18 13:36:47;;;;;;;;;;;14.70;99.90;;;;;;5070849;28;20354;-71
2022/09/18 13:39:27;;;;;;;;;;;14.80;99.90;;;;;;5070377;28;19927;-71
2022/09/18 13:41:54;;;;;;;;;;;14.90;99.90;;;;;;5067840;28;20417;-71
2022/09/18 13:44:21;;;;;;;;;;;14.80;99.90;;;;;;5050876;28;19970;-71
2022/09/18 13:46:47;;;;;;;;;;;14.80;99.90;;;;;;5067564;28;19921;-71
2022/09/18 13:49:18;;;;;;;;;;;14.80;99.90;;;;;;5069169;28;19924;-71
2022/09/18 13:51:44;;;;;;;;;;;14.60;99.90;;;;;;5069232;28;19932;-71
2022/09/18 13:54:09;;;;;;;;;;;14.50;99.90;;;;;;5053823;28;19957;-71
2022/09/18 13:56:55;;;;;;;;;;;14.50;99.90;;;;;;5068564;28;19956;-71
2022/09/18 13:59:21;;;;;;;;;;;14.40;99.90;;;;;;5064796;28;19928;-71
2022/09/18 14:01:57;;;;;;;;;;;14.30;99.90;;;;;;5068831;28;19924;-72
2022/09/18 14:04:38;;;;;;;;;;;14.20;99.90;;;;;;5055250;28;19921;-71
2022/09/18 14:07:16;;;;;;;;;;;14.10;99.90;;;;;;5037675;28;19936;-71
2022/09/18 14:10:04;;;;;;;;;;;14.10;99.90;;;;;;5053218;28;19955;-71
2022/09/18 14:12:34;;;;;;;;;;;13.90;99.90;;;;;;5061352;28;19931;-71
2022/09/18 14:15:04;;;;;;;;;;;13.90;99.90;;;;;;5049265;28;19927;-72
2022/09/18 14:17:30;;;;;;;;;;;13.90;99.90;;;;;;5086602;28;19936;-71
2022/09/18 14:20:06;;;;;;;;;;;13.90;99.90;;;;;;5067011;28;20019;-71
2022/09/18 14:22:33;;;;;;;;;;;13.90;99.90;;;;;;5072409;28;19920;-71
2022/09/18 14:25:00;;;;;;;;;;;13.90;99.90;;;;;;5073217;28;20065;-71
2022/09/18 14:27:29;;;;;;;;;;;13.90;99.90;;;;;;5070208;28;19932;-71
2022/09/18 14:29:56;;;;;;;;;;;13.60;99.90;;;;;;5073627;28;19950;-71
2022/09/18 14:32:23;;;;;;;;;;;13.50;99.90;;;;;;5073770;28;20387;-71
2022/09/18 14:34:52;;;;;;;;;;;13.50;99.90;;;;;;5072291;28;19930;-71
2022/09/18 14:37:23;;;;;;;;;;;13.30;99.90;;;;;;5070125;28;19925;-71
2022/09/18 14:39:49;;;;;;;;;;;13.20;99.90;;;;;;5072684;28;20449;-71
2022/09/18 14:42:32;;;;;;;;;;;13.10;99.90;;;;;;5073313;28;19924;-71
2022/09/18 14:45:07;;;;;;;;;;;13.00;99.90;;;;;;5069583;28;19924;-71
2022/09/18 14:47:33;;;;;;;;;;;12.80;99.90;;;;;;5069953;28;20506;-71
2022/09/18 14:49:58;;;;;;;;;;;12.60;99.90;;;;;;5079111;28;20007;-71